createdAt,value
2017-11-30T00:08:19.219Z,97193.59
2017-11-30T00:28:54.184Z,97190.50
2017-11-30T00:49:25.466Z,97189.72
2017-11-30T01:10:00.734Z,97189.08
2017-11-30T01:30:33.857Z,97173.73
2017-11-30T01:51:10.049Z,97183.91
2017-11-30T02:11:46.685Z,97179.62
2017-11-30T02:32:23.773Z,97179.94
2017-11-30T02:52:58.932Z,97176.00
2017-11-30T03:13:30.217Z,97155.88
2017-11-30T03:34:05.484Z,97181.11
2017-11-30T03:54:39.529Z,97183.36
2017-11-30T04:15:15.721Z,97178.52
2017-11-30T04:35:53.304Z,97185.62
2017-11-30T04:56:29.337Z,97171.06
2017-11-30T05:17:02.470Z,97175.04
2017-11-30T05:37:38.656Z,97181.44
2017-11-30T05:58:13.005Z,97178.63
2017-11-30T06:18:44.279Z,97189.42
2017-11-30T06:39:19.249Z,97184.38
2017-11-30T06:59:56.019Z,97191.91
2017-11-30T07:20:32.860Z,97197.00
2017-11-30T07:41:09.393Z,97195.76
2017-11-30T08:01:43.400Z,97210.70
2017-11-30T08:22:16.525Z,97204.03
2017-11-30T08:42:51.793Z,97201.24
2017-11-30T09:03:27.982Z,97203.87
2017-11-30T09:24:00.186Z,97204.77
2017-11-30T09:44:35.464Z,97211.70
2017-11-30T10:05:09.915Z,97197.13
2017-11-30T10:25:48.185Z,97186.08
2017-11-30T10:46:21.395Z,97168.11
2017-11-30T11:06:56.626Z,97149.11
2017-11-30T11:27:33.656Z,97137.76
2017-11-30T11:48:08.933Z,97118.28
2017-11-30T12:08:43.326Z,97116.08
2017-11-30T12:29:18.311Z,97099.87
2017-11-30T12:49:53.553Z,97088.51
2017-11-30T13:10:30.629Z,97075.08
2017-11-30T13:31:08.664Z,97057.93
2017-11-30T13:51:43.320Z,97060.00
2017-11-30T14:12:16.437Z,97066.13
2017-11-30T14:32:50.485Z,97096.39
2017-11-30T14:53:26.174Z,97105.13
2017-11-30T15:14:05.025Z,97111.34
2017-11-30T15:34:37.525Z,97117.17
2017-11-30T15:55:12.800Z,97128.58
2017-11-30T16:15:45.924Z,97141.39
2017-11-30T16:36:22.123Z,97147.67
2017-11-30T16:56:59.225Z,97166.32
2017-11-30T17:17:34.492Z,97182.42
2017-11-30T17:38:09.036Z,97188.34
2017-11-30T17:58:44.266Z,97198.91
2017-11-30T18:19:19.086Z,97207.11
2017-11-30T18:39:54.730Z,97199.37
2017-11-30T19:00:30.547Z,97197.91
2017-11-30T19:21:04.899Z,97210.09
2017-11-30T19:41:40.439Z,97226.25
2017-11-30T20:02:16.371Z,97232.48
2017-11-30T20:22:53.912Z,97257.09
2017-11-30T20:43:27.855Z,97277.64
2017-11-30T21:04:03.160Z,97269.58
2017-11-30T21:24:40.549Z,97257.95
2017-11-30T21:45:25.329Z,97259.16
2017-11-30T22:06:06.126Z,97267.09
2017-11-30T22:26:41.404Z,97279.75
2017-11-30T22:47:19.729Z,97280.73
2017-11-30T23:07:54.704Z,97290.41
2017-11-30T23:28:29.055Z,97299.83
2017-11-30T23:49:08.429Z,97299.77
